LOWI/INN METAR and TAF weather

Enter ICAO airport designator
Station Type Date Time Source
LOWI METAR 2021/09/27 05:50 UTC NOAA

LOWI 270550Z 26003KT 9999 FEW003 BKN008 14/13 Q1021 BECMG SCT008 SCT020


Station Type Date Time Source
LOWI Decoded METAR 2021/09/27 05:50 UTC NOAA

Innsbruck-Flughafen, Austria (LOWI) 47-16N 011-21E 593M
Sep 27, 2021 - 01:50 AM EDT / 2021.09.27 0550 UTC
Wind: from the W (260 degrees) at 3 MPH (3 KT):0
Visibility: greater than 7 mile(s):0
Sky conditions: mostly cloudy
Temperature: 57 F (14 C)
Dew Point: 55 F (13 C)
Relative Humidity: 93%
Pressure (altimeter): 30.15 in. Hg (1021 hPa)
ob: LOWI 270550Z 26003KT 9999 FEW003 BKN008 14/13 Q1021 BECMG SCT008 SCT020
cycle: 6

Station Type Date Time Source
LOWI TAF 2021/09/27 06:18 UTC NOAA

TAF LOWI 270515Z 2706/2806 27003KT 9999 FEW003 BKN008 TX22/2714Z TN12/2805Z
BECMG 2706/2708 FEW015 BKN070
TEMPO 2712/2717 08010KT
TEMPO 2802/2806 BKN008

Example: see airport list